sensor_id;sensor_type;location;lat;lon;timestamp;temperature;humidity
15596;DHT22;7898;48.658;9.068;2023-02-11T00:01:47;-3.10;99.90
15596;DHT22;7898;48.658;9.068;2023-02-11T00:04:14;-3.10;99.90
15596;DHT22;7898;48.658;9.068;2023-02-11T00:06:41;-3.10;99.90
15596;DHT22;7898;48.658;9.068;2023-02-11T00:09:09;-3.10;99.90
15596;DHT22;7898;48.658;9.068;2023-02-11T00:11:37;-3.10;99.90
15596;DHT22;7898;48.658;9.068;2023-02-11T00:14:06;-3.20;99.90
15596;DHT22;7898;48.658;9.068;2023-02-11T00:16:33;-3.20;99.90
15596;DHT22;7898;48.658;9.068;2023-02-11T00:19:01;-3.20;99.90
15596;DHT22;7898;48.658;9.068;2023-02-11T00:21:28;-3.30;99.90
15596;DHT22;7898;48.658;9.068;2023-02-11T00:23:55;-3.30;99.90
15596;DHT22;7898;48.658;9.068;2023-02-11T00:26:25;-3.30;99.90
15596;DHT22;7898;48.658;9.068;2023-02-11T00:28:54;-3.40;99.90
15596;DHT22;7898;48.658;9.068;2023-02-11T00:31:22;-3.40;99.90
15596;DHT22;7898;48.658;9.068;2023-02-11T00:33:50;-3.50;99.90
15596;DHT22;7898;48.658;9.068;2023-02-11T00:36:18;-3.50;99.90
15596;DHT22;7898;48.658;9.068;2023-02-11T00:38:47;-2.90;99.90
15596;DHT22;7898;48.658;9.068;2023-02-11T00:41:15;-3.50;99.90
15596;DHT22;7898;48.658;9.068;2023-02-11T00:43:42;-3.20;99.90
15596;DHT22;7898;48.658;9.068;2023-02-11T00:46:10;-3.50;99.90
15596;DHT22;7898;48.658;9.068;2023-02-11T00:48:37;-3.30;99.90
15596;DHT22;7898;48.658;9.068;2023-02-11T00:51:05;-3.20;99.90
15596;DHT22;7898;48.658;9.068;2023-02-11T00:53:32;-3.20;99.90
15596;DHT22;7898;48.658;9.068;2023-02-11T00:55:59;-3.30;99.90
15596;DHT22;7898;48.658;9.068;2023-02-11T00:58:27;-3.30;99.90
15596;DHT22;7898;48.658;9.068;2023-02-11T01:00:54;-3.20;99.90
15596;DHT22;7898;48.658;9.068;2023-02-11T01:03:23;-3.40;99.90
15596;DHT22;7898;48.658;9.068;2023-02-11T01:05:50;-3.50;99.90
15596;DHT22;7898;48.658;9.068;2023-02-11T01:08:17;-3.60;99.90
15596;DHT22;7898;48.658;9.068;2023-02-11T01:10:44;-3.60;99.90
15596;DHT22;7898;48.658;9.068;2023-02-11T01:13:11;-3.70;99.90
15596;DHT22;7898;48.658;9.068;2023-02-11T01:15:38;-3.70;99.90
15596;DHT22;7898;48.658;9.068;2023-02-11T01:18:05;-3.80;99.90
15596;DHT22;7898;48.658;9.068;2023-02-11T01:20:33;-3.80;99.90
15596;DHT22;7898;48.658;9.068;2023-02-11T01:23:00;-3.80;99.90
15596;DHT22;7898;48.658;9.068;2023-02-11T01:25:27;-3.70;99.90
15596;DHT22;7898;48.658;9.068;2023-02-11T01:27:54;-3.70;99.90
15596;DHT22;7898;48.658;9.068;2023-02-11T01:30:21;-3.70;99.90
15596;DHT22;7898;48.658;9.068;2023-02-11T01:32:48;-3.70;99.90
15596;DHT22;7898;48.658;9.068;2023-02-11T01:35:15;-3.70;99.90
15596;DHT22;7898;48.658;9.068;2023-02-11T01:37:43;-3.70;99.90
15596;DHT22;7898;48.658;9.068;2023-02-11T01:40:14;-3.60;99.90
15596;DHT22;7898;48.658;9.068;2023-02-11T01:42:42;-3.60;99.90
15596;DHT22;7898;48.658;9.068;2023-02-11T01:48:15;-3.50;99.90
15596;DHT22;7898;48.658;9.068;2023-02-11T01:50:45;-3.50;99.90
15596;DHT22;7898;48.658;9.068;2023-02-11T01:53:15;-3.60;99.90
15596;DHT22;7898;48.658;9.068;2023-02-11T01:56:00;-3.50;99.90
15596;DHT22;7898;48.658;9.068;2023-02-11T01:58:46;-3.40;99.90
15596;DHT22;7898;48.658;9.068;2023-02-11T02:01:18;-3.50;99.90
15596;DHT22;7898;48.658;9.068;2023-02-11T02:03:48;-3.60;99.90
15596;DHT22;7898;48.658;9.068;2023-02-11T02:06:23;-3.70;99.90
15596;DHT22;7898;48.658;9.068;2023-02-11T02:08:56;-3.70;99.90
15596;DHT22;7898;48.658;9.068;2023-02-11T02:11:26;-3.80;99.90
15596;DHT22;7898;48.658;9.068;2023-02-11T02:13:53;-3.90;99.90
15596;DHT22;7898;48.658;9.068;2023-02-11T02:16:21;-3.90;99.90
15596;DHT22;7898;48.658;9.068;2023-02-11T02:18:58;-3.90;99.90
15596;DHT22;7898;48.658;9.068;2023-02-11T02:21:50;-4.00;99.90
15596;DHT22;7898;48.658;9.068;2023-02-11T02:27:32;-3.90;99.90
15596;DHT22;7898;48.658;9.068;2023-02-11T02:33:25;-3.70;99.90
15596;DHT22;7898;48.658;9.068;2023-02-11T02:36:04;-3.70;99.90
15596;DHT22;7898;48.658;9.068;2023-02-11T02:38:36;-3.60;99.90
15596;DHT22;7898;48.658;9.068;2023-02-11T02:41:07;-3.60;99.90
15596;DHT22;7898;48.658;9.068;2023-02-11T02:43:39;-3.50;99.90
15596;DHT22;7898;48.658;9.068;2023-02-11T02:46:15;-3.40;99.90
15596;DHT22;7898;48.658;9.068;2023-02-11T02:48:44;-3.50;99.90
15596;DHT22;7898;48.658;9.068;2023-02-11T02:51:22;-3.50;99.90
15596;DHT22;7898;48.658;9.068;2023-02-11T02:54:02;-3.50;99.90
15596;DHT22;7898;48.658;9.068;2023-02-11T02:56:39;-3.50;99.90
15596;DHT22;7898;48.658;9.068;2023-02-11T02:59:26;-3.50;99.90
15596;DHT22;7898;48.658;9.068;2023-02-11T03:02:01;-2.80;99.90
15596;DHT22;7898;48.658;9.068;2023-02-11T03:04:36;-3.40;99.90
15596;DHT22;7898;48.658;9.068;2023-02-11T03:07:11;-3.50;99.90
15596;DHT22;7898;48.658;9.068;2023-02-11T03:09:46;-3.50;99.90
15596;DHT22;7898;48.658;9.068;2023-02-11T03:12:15;-3.50;99.90
15596;DHT22;7898;48.658;9.068;2023-02-11T03:14:44;-3.60;99.90
15596;DHT22;7898;48.658;9.068;2023-02-11T03:17:13;-3.70;99.90
15596;DHT22;7898;48.658;9.068;2023-02-11T03:19:43;-3.70;99.90
15596;DHT22;7898;48.658;9.068;2023-02-11T03:22:16;-3.70;99.90
15596;DHT22;7898;48.658;9.068;2023-02-11T03:24:45;-3.60;99.90
15596;DHT22;7898;48.658;9.068;2023-02-11T03:27:18;-3.60;99.90
15596;DHT22;7898;48.658;9.068;2023-02-11T03:29:50;-3.10;99.90
15596;DHT22;7898;48.658;9.068;2023-02-11T03:32:23;-3.50;99.90
15596;DHT22;7898;48.658;9.068;2023-02-11T03:34:55;-3.40;99.90
15596;DHT22;7898;48.658;9.068;2023-02-11T03:37:26;-2.80;99.90
15596;DHT22;7898;48.658;9.068;2023-02-11T03:39:56;-3.50;99.90
15596;DHT22;7898;48.658;9.068;2023-02-11T03:42:27;-3.60;99.90
15596;DHT22;7898;48.658;9.068;2023-02-11T03:44:59;-3.30;99.90
15596;DHT22;7898;48.658;9.068;2023-02-11T03:47:30;-3.60;99.90
15596;DHT22;7898;48.658;9.068;2023-02-11T03:50:02;-3.50;99.90
15596;DHT22;7898;48.658;9.068;2023-02-11T03:52:30;-3.40;99.90
15596;DHT22;7898;48.658;9.068;2023-02-11T03:54:59;-3.30;99.90
15596;DHT22;7898;48.658;9.068;2023-02-11T03:57:27;-3.30;99.90
15596;DHT22;7898;48.658;9.068;2023-02-11T03:59:56;-3.30;99.90
15596;DHT22;7898;48.658;9.068;2023-02-11T04:02:25;-3.30;99.90
15596;DHT22;7898;48.658;9.068;2023-02-11T04:04:53;-3.30;99.90
15596;DHT22;7898;48.658;9.068;2023-02-11T04:07:21;-3.30;99.90
15596;DHT22;7898;48.658;9.068;2023-02-11T04:09:48;-3.40;99.90
15596;DHT22;7898;48.658;9.068;2023-02-11T04:12:15;-3.30;99.90
15596;DHT22;7898;48.658;9.068;2023-02-11T04:14:42;-3.30;99.90
15596;DHT22;7898;48.658;9.068;2023-02-11T04:17:09;-3.40;99.90
15596;DHT22;7898;48.658;9.068;2023-02-11T04:19:36;-3.50;99.90
15596;DHT22;7898;48.658;9.068;2023-02-11T04:22:03;-3.40;99.90
15596;DHT22;7898;48.658;9.068;2023-02-11T04:24:31;-3.40;99.90
15596;DHT22;7898;48.658;9.068;2023-02-11T04:26:58;-3.50;99.90
15596;DHT22;7898;48.658;9.068;2023-02-11T04:29:25;-3.50;99.90
15596;DHT22;7898;48.658;9.068;2023-02-11T04:31:53;-3.50;99.90
15596;DHT22;7898;48.658;9.068;2023-02-11T04:34:21;-3.40;99.90
15596;DHT22;7898;48.658;9.068;2023-02-11T04:36:49;-3.10;99.90
15596;DHT22;7898;48.658;9.068;2023-02-11T04:39:16;-3.30;99.90
15596;DHT22;7898;48.658;9.068;2023-02-11T04:41:44;-3.10;99.90
15596;DHT22;7898;48.658;9.068;2023-02-11T04:44:11;-3.20;99.90
15596;DHT22;7898;48.658;9.068;2023-02-11T04:46:38;-3.10;99.90
15596;DHT22;7898;48.658;9.068;2023-02-11T04:49:05;-3.00;99.90
15596;DHT22;7898;48.658;9.068;2023-02-11T04:51:32;-2.90;99.90
15596;DHT22;7898;48.658;9.068;2023-02-11T04:53:58;-2.90;99.90
15596;DHT22;7898;48.658;9.068;2023-02-11T04:56:25;-2.90;99.90
15596;DHT22;7898;48.658;9.068;2023-02-11T04:58:54;-2.90;99.90
15596;DHT22;7898;48.658;9.068;2023-02-11T05:01:20;-2.80;99.90
15596;DHT22;7898;48.658;9.068;2023-02-11T05:03:47;-2.70;99.90
15596;DHT22;7898;48.658;9.068;2023-02-11T05:06:16;-2.60;99.90
15596;DHT22;7898;48.658;9.068;2023-02-11T05:08:43;-2.50;99.90
15596;DHT22;7898;48.658;9.068;2023-02-11T05:11:16;-2.50;99.90
15596;DHT22;7898;48.658;9.068;2023-02-11T05:13:43;-2.40;99.90
15596;DHT22;7898;48.658;9.068;2023-02-11T05:16:12;-2.40;99.90
15596;DHT22;7898;48.658;9.068;2023-02-11T05:18:39;-2.30;99.90
15596;DHT22;7898;48.658;9.068;2023-02-11T05:21:07;-2.20;99.90
15596;DHT22;7898;48.658;9.068;2023-02-11T05:23:34;-2.20;99.90
15596;DHT22;7898;48.658;9.068;2023-02-11T05:26:02;-2.20;99.90
15596;DHT22;7898;48.658;9.068;2023-02-11T05:28:29;-2.10;99.90
15596;DHT22;7898;48.658;9.068;2023-02-11T05:30:56;-2.10;99.90
15596;DHT22;7898;48.658;9.068;2023-02-11T05:33:24;-2.10;99.90
15596;DHT22;7898;48.658;9.068;2023-02-11T05:35:51;-2.10;99.90
15596;DHT22;7898;48.658;9.068;2023-02-11T05:38:21;-2.00;99.90
15596;DHT22;7898;48.658;9.068;2023-02-11T05:40:48;-2.00;99.90
15596;DHT22;7898;48.658;9.068;2023-02-11T05:43:15;-1.80;99.90
15596;DHT22;7898;48.658;9.068;2023-02-11T05:45:42;-1.80;99.90
15596;DHT22;7898;48.658;9.068;2023-02-11T05:48:09;-1.80;99.90
15596;DHT22;7898;48.658;9.068;2023-02-11T05:50:37;-1.80;99.90
15596;DHT22;7898;48.658;9.068;2023-02-11T05:53:05;-1.80;99.90
15596;DHT22;7898;48.658;9.068;2023-02-11T05:55:32;-0.90;99.90
15596;DHT22;7898;48.658;9.068;2023-02-11T05:57:59;-1.90;99.90
15596;DHT22;7898;48.658;9.068;2023-02-11T06:00:26;-1.90;99.90
15596;DHT22;7898;48.658;9.068;2023-02-11T06:02:53;-1.70;99.90
15596;DHT22;7898;48.658;9.068;2023-02-11T06:05:20;-1.70;99.90
15596;DHT22;7898;48.658;9.068;2023-02-11T06:07:48;-1.60;99.90
15596;DHT22;7898;48.658;9.068;2023-02-11T06:10:15;-1.70;99.90
15596;DHT22;7898;48.658;9.068;2023-02-11T06:12:42;-1.40;99.90
15596;DHT22;7898;48.658;9.068;2023-02-11T06:15:09;-1.60;99.90
15596;DHT22;7898;48.658;9.068;2023-02-11T06:17:36;-1.60;99.90
15596;DHT22;7898;48.658;9.068;2023-02-11T06:20:05;-1.70;99.90
15596;DHT22;7898;48.658;9.068;2023-02-11T06:22:33;-1.70;99.90
15596;DHT22;7898;48.658;9.068;2023-02-11T06:25:01;-1.70;99.90
15596;DHT22;7898;48.658;9.068;2023-02-11T06:27:28;-1.70;99.90
15596;DHT22;7898;48.658;9.068;2023-02-11T06:29:55;-1.60;99.90
15596;DHT22;7898;48.658;9.068;2023-02-11T06:32:22;-1.60;99.90
15596;DHT22;7898;48.658;9.068;2023-02-11T06:34:49;-1.60;99.90
15596;DHT22;7898;48.658;9.068;2023-02-11T06:37:16;-1.60;99.90
15596;DHT22;7898;48.658;9.068;2023-02-11T06:39:43;-1.60;99.90
15596;DHT22;7898;48.658;9.068;2023-02-11T06:42:11;-1.60;99.90
15596;DHT22;7898;48.658;9.068;2023-02-11T06:44:38;-1.50;99.90
15596;DHT22;7898;48.658;9.068;2023-02-11T06:47:05;-1.50;99.90
15596;DHT22;7898;48.658;9.068;2023-02-11T06:49:32;-0.80;99.90
15596;DHT22;7898;48.658;9.068;2023-02-11T06:51:59;-1.20;99.90
15596;DHT22;7898;48.658;9.068;2023-02-11T06:54:26;-1.20;99.90
15596;DHT22;7898;48.658;9.068;2023-02-11T06:56:53;-0.50;99.90
15596;DHT22;7898;48.658;9.068;2023-02-11T06:59:21;-0.80;99.90
15596;DHT22;7898;48.658;9.068;2023-02-11T07:01:48;-1.00;99.90
15596;DHT22;7898;48.658;9.068;2023-02-11T07:04:15;-1.00;99.90
15596;DHT22;7898;48.658;9.068;2023-02-11T07:06:42;-0.90;99.90
15596;DHT22;7898;48.658;9.068;2023-02-11T07:09:09;-0.90;99.90
15596;DHT22;7898;48.658;9.068;2023-02-11T07:11:36;-0.90;99.90
15596;DHT22;7898;48.658;9.068;2023-02-11T07:14:04;-0.90;99.90
15596;DHT22;7898;48.658;9.068;2023-02-11T07:16:34;-0.90;99.90
15596;DHT22;7898;48.658;9.068;2023-02-11T07:19:01;-0.90;99.90
15596;DHT22;7898;48.658;9.068;2023-02-11T07:21:27;-0.90;99.90
15596;DHT22;7898;48.658;9.068;2023-02-11T07:23:54;-0.90;99.90
15596;DHT22;7898;48.658;9.068;2023-02-11T07:26:23;-0.70;99.90
15596;DHT22;7898;48.658;9.068;2023-02-11T07:28:50;-0.90;99.90
15596;DHT22;7898;48.658;9.068;2023-02-11T07:31:19;-0.80;99.90
15596;DHT22;7898;48.658;9.068;2023-02-11T07:33:47;-0.60;99.90
15596;DHT22;7898;48.658;9.068;2023-02-11T07:36:15;-0.20;99.90
15596;DHT22;7898;48.658;9.068;2023-02-11T07:38:42;-0.60;99.90
15596;DHT22;7898;48.658;9.068;2023-02-11T07:41:11;-0.60;99.90
15596;DHT22;7898;48.658;9.068;2023-02-11T07:43:38;-0.40;99.90
15596;DHT22;7898;48.658;9.068;2023-02-11T07:46:06;-0.50;99.90
15596;DHT22;7898;48.658;9.068;2023-02-11T07:48:33;-0.40;99.90
15596;DHT22;7898;48.658;9.068;2023-02-11T07:51:10;-0.20;99.90
15596;DHT22;7898;48.658;9.068;2023-02-11T07:53:38;0.20;99.90
15596;DHT22;7898;48.658;9.068;2023-02-11T07:56:06;0.80;99.90
15596;DHT22;7898;48.658;9.068;2023-02-11T07:58:34;1.10;99.90
15596;DHT22;7898;48.658;9.068;2023-02-11T08:01:01;1.50;99.90
15596;DHT22;7898;48.658;9.068;2023-02-11T08:03:28;1.90;99.90
15596;DHT22;7898;48.658;9.068;2023-02-11T08:05:55;2.20;99.90
15596;DHT22;7898;48.658;9.068;2023-02-11T08:08:25;2.30;99.90
15596;DHT22;7898;48.658;9.068;2023-02-11T08:10:52;2.40;99.90
15596;DHT22;7898;48.658;9.068;2023-02-11T08:13:19;2.40;99.90
15596;DHT22;7898;48.658;9.068;2023-02-11T08:15:46;2.60;99.90
15596;DHT22;7898;48.658;9.068;2023-02-11T08:18:13;2.60;99.90
15596;DHT22;7898;48.658;9.068;2023-02-11T08:20:40;2.50;99.90
15596;DHT22;7898;48.658;9.068;2023-02-11T08:23:07;2.50;99.90
15596;DHT22;7898;48.658;9.068;2023-02-11T08:25:35;2.30;99.90
15596;DHT22;7898;48.658;9.068;2023-02-11T08:28:02;2.20;99.90
15596;DHT22;7898;48.658;9.068;2023-02-11T08:30:29;2.10;99.90
15596;DHT22;7898;48.658;9.068;2023-02-11T08:32:56;2.20;99.90
15596;DHT22;7898;48.658;9.068;2023-02-11T08:35:22;2.30;99.90
15596;DHT22;7898;48.658;9.068;2023-02-11T08:37:50;2.40;99.90
15596;DHT22;7898;48.658;9.068;2023-02-11T08:40:17;2.50;99.90
15596;DHT22;7898;48.658;9.068;2023-02-11T08:42:46;2.30;99.90
15596;DHT22;7898;48.658;9.068;2023-02-11T08:45:12;2.50;99.90
15596;DHT22;7898;48.658;9.068;2023-02-11T08:47:39;2.40;99.90
15596;DHT22;7898;48.658;9.068;2023-02-11T08:50:07;2.60;99.90
15596;DHT22;7898;48.658;9.068;2023-02-11T08:52:35;2.80;99.90
15596;DHT22;7898;48.658;9.068;2023-02-11T08:55:02;3.10;99.90
15596;DHT22;7898;48.658;9.068;2023-02-11T08:57:29;3.30;99.90
15596;DHT22;7898;48.658;9.068;2023-02-11T08:59:57;3.70;99.90
15596;DHT22;7898;48.658;9.068;2023-02-11T09:02:24;4.80;99.90
15596;DHT22;7898;48.658;9.068;2023-02-11T09:04:51;5.70;99.90
15596;DHT22;7898;48.658;9.068;2023-02-11T09:07:18;6.60;99.90
15596;DHT22;7898;48.658;9.068;2023-02-11T09:09:44;7.20;99.90
15596;DHT22;7898;48.658;9.068;2023-02-11T09:12:11;7.70;99.90
15596;DHT22;7898;48.658;9.068;2023-02-11T09:14:38;8.50;99.90
15596;DHT22;7898;48.658;9.068;2023-02-11T09:17:07;9.20;99.90
15596;DHT22;7898;48.658;9.068;2023-02-11T09:19:34;9.80;99.90
15596;DHT22;7898;48.658;9.068;2023-02-11T09:22:01;9.90;99.90
15596;DHT22;7898;48.658;9.068;2023-02-11T09:24:28;10.00;99.90
15596;DHT22;7898;48.658;9.068;2023-02-11T09:26:55;10.10;99.90
15596;DHT22;7898;48.658;9.068;2023-02-11T09:29:22;9.90;99.90
15596;DHT22;7898;48.658;9.068;2023-02-11T09:31:49;10.00;99.90
15596;DHT22;7898;48.658;9.068;2023-02-11T09:34:17;10.00;99.90
15596;DHT22;7898;48.658;9.068;2023-02-11T09:36:44;10.50;99.90
15596;DHT22;7898;48.658;9.068;2023-02-11T09:39:12;10.80;99.90
15596;DHT22;7898;48.658;9.068;2023-02-11T09:42:19;10.80;99.90
15596;DHT22;7898;48.658;9.068;2023-02-11T09:44:51;10.70;99.90
15596;DHT22;7898;48.658;9.068;2023-02-11T09:47:23;11.20;99.90
15596;DHT22;7898;48.658;9.068;2023-02-11T09:49:58;11.40;99.90
15596;DHT22;7898;48.658;9.068;2023-02-11T09:52:31;11.80;99.90
15596;DHT22;7898;48.658;9.068;2023-02-11T09:55:01;11.70;99.90
15596;DHT22;7898;48.658;9.068;2023-02-11T09:57:32;11.60;99.90
15596;DHT22;7898;48.658;9.068;2023-02-11T10:00:00;11.60;99.90
15596;DHT22;7898;48.658;9.068;2023-02-11T10:02:32;11.40;99.90
15596;DHT22;7898;48.658;9.068;2023-02-11T10:05:31;11.30;99.90
15596;DHT22;7898;48.658;9.068;2023-02-11T10:08:07;11.30;99.90
15596;DHT22;7898;48.658;9.068;2023-02-11T10:10:43;11.30;99.90
15596;DHT22;7898;48.658;9.068;2023-02-11T10:13:29;11.40;99.90
15596;DHT22;7898;48.658;9.068;2023-02-11T10:16:04;11.40;99.90
15596;DHT22;7898;48.658;9.068;2023-02-11T10:18:45;11.20;99.90
15596;DHT22;7898;48.658;9.068;2023-02-11T10:21:21;11.00;99.90
15596;DHT22;7898;48.658;9.068;2023-02-11T10:23:54;11.00;99.90
15596;DHT22;7898;48.658;9.068;2023-02-11T10:26:22;11.10;99.90
15596;DHT22;7898;48.658;9.068;2023-02-11T10:28:53;11.10;99.90
15596;DHT22;7898;48.658;9.068;2023-02-11T10:31:24;11.20;99.90
15596;DHT22;7898;48.658;9.068;2023-02-11T10:33:55;11.20;99.90
15596;DHT22;7898;48.658;9.068;2023-02-11T10:36:28;11.30;99.90
15596;DHT22;7898;48.658;9.068;2023-02-11T10:38:57;11.50;99.90
15596;DHT22;7898;48.658;9.068;2023-02-11T10:41:28;11.60;99.90
15596;DHT22;7898;48.658;9.068;2023-02-11T10:43:58;11.70;99.90
15596;DHT22;7898;48.658;9.068;2023-02-11T10:46:30;11.80;99.90
15596;DHT22;7898;48.658;9.068;2023-02-11T10:48:57;11.70;99.90
15596;DHT22;7898;48.658;9.068;2023-02-11T10:51:27;11.80;99.90
15596;DHT22;7898;48.658;9.068;2023-02-11T10:54:11;11.70;99.90
15596;DHT22;7898;48.658;9.068;2023-02-11T10:56:41;11.70;99.90
15596;DHT22;7898;48.658;9.068;2023-02-11T10:59:19;11.70;99.90
15596;DHT22;7898;48.658;9.068;2023-02-11T11:01:49;11.90;99.90
15596;DHT22;7898;48.658;9.068;2023-02-11T11:04:41;11.80;99.90
15596;DHT22;7898;48.658;9.068;2023-02-11T11:07:16;11.60;99.90
15596;DHT22;7898;48.658;9.068;2023-02-11T11:09:47;11.60;99.90
15596;DHT22;7898;48.658;9.068;2023-02-11T11:12:24;11.70;99.90
15596;DHT22;7898;48.658;9.068;2023-02-11T11:14:54;11.60;99.90
15596;DHT22;7898;48.658;9.068;2023-02-11T11:17:21;11.50;99.90
15596;DHT22;7898;48.658;9.068;2023-02-11T11:19:48;11.20;99.90
15596;DHT22;7898;48.658;9.068;2023-02-11T11:22:22;11.20;99.90
15596;DHT22;7898;48.658;9.068;2023-02-11T11:24:49;11.30;99.90
15596;DHT22;7898;48.658;9.068;2023-02-11T11:27:22;11.30;99.90
15596;DHT22;7898;48.658;9.068;2023-02-11T11:29:50;11.30;99.90
15596;DHT22;7898;48.658;9.068;2023-02-11T11:32:21;11.40;99.90
15596;DHT22;7898;48.658;9.068;2023-02-11T11:34:53;11.50;99.90
15596;DHT22;7898;48.658;9.068;2023-02-11T11:37:25;11.60;99.90
15596;DHT22;7898;48.658;9.068;2023-02-11T11:39:56;11.80;99.90
15596;DHT22;7898;48.658;9.068;2023-02-11T11:42:26;11.90;99.90
15596;DHT22;7898;48.658;9.068;2023-02-11T11:44:57;11.90;99.90
15596;DHT22;7898;48.658;9.068;2023-02-11T11:47:31;11.90;99.90
15596;DHT22;7898;48.658;9.068;2023-02-11T11:50:24;11.80;99.90
15596;DHT22;7898;48.658;9.068;2023-02-11T11:52:58;11.80;99.90
15596;DHT22;7898;48.658;9.068;2023-02-11T11:55:29;11.80;99.90
15596;DHT22;7898;48.658;9.068;2023-02-11T11:57:57;12.00;99.90
15596;DHT22;7898;48.658;9.068;2023-02-11T12:00:31;12.10;99.90
15596;DHT22;7898;48.658;9.068;2023-02-11T12:03:23;12.10;99.90
15596;DHT22;7898;48.658;9.068;2023-02-11T12:06:07;12.10;99.90
15596;DHT22;7898;48.658;9.068;2023-02-11T12:08:45;12.20;99.90
15596;DHT22;7898;48.658;9.068;2023-02-11T12:11:20;12.30;99.90
15596;DHT22;7898;48.658;9.068;2023-02-11T12:13:59;12.60;99.90
15596;DHT22;7898;48.658;9.068;2023-02-11T12:16:35;12.60;99.90
15596;DHT22;7898;48.658;9.068;2023-02-11T12:22:15;12.50;99.90
15596;DHT22;7898;48.658;9.068;2023-02-11T12:25:06;12.60;99.90
15596;DHT22;7898;48.658;9.068;2023-02-11T12:27:44;12.70;99.90
15596;DHT22;7898;48.658;9.068;2023-02-11T12:30:38;12.80;99.90
15596;DHT22;7898;48.658;9.068;2023-02-11T12:33:13;13.00;99.90
15596;DHT22;7898;48.658;9.068;2023-02-11T12:35:50;13.10;99.90
15596;DHT22;7898;48.658;9.068;2023-02-11T12:38:49;12.70;99.90
15596;DHT22;7898;48.658;9.068;2023-02-11T12:41:39;12.50;99.90
15596;DHT22;7898;48.658;9.068;2023-02-11T12:44:33;12.00;99.90
15596;DHT22;7898;48.658;9.068;2023-02-11T12:47:11;12.20;99.90
15596;DHT22;7898;48.658;9.068;2023-02-11T12:49:52;12.10;99.90
15596;DHT22;7898;48.658;9.068;2023-02-11T12:52:32;12.30;99.90
15596;DHT22;7898;48.658;9.068;2023-02-11T12:55:08;12.50;99.90
15596;DHT22;7898;48.658;9.068;2023-02-11T12:57:39;12.60;99.90
15596;DHT22;7898;48.658;9.068;2023-02-11T13:00:14;12.60;99.90
15596;DHT22;7898;48.658;9.068;2023-02-11T13:02:47;12.60;99.90
15596;DHT22;7898;48.658;9.068;2023-02-11T13:05:24;12.50;99.90
15596;DHT22;7898;48.658;9.068;2023-02-11T13:07:57;12.60;99.90
15596;DHT22;7898;48.658;9.068;2023-02-11T13:10:32;12.70;99.90
15596;DHT22;7898;48.658;9.068;2023-02-11T13:13:02;12.90;99.90
15596;DHT22;7898;48.658;9.068;2023-02-11T13:15:44;13.00;99.90
15596;DHT22;7898;48.658;9.068;2023-02-11T13:18:18;13.10;99.90
15596;DHT22;7898;48.658;9.068;2023-02-11T13:20:52;13.20;99.90
15596;DHT22;7898;48.658;9.068;2023-02-11T13:23:25;13.50;99.90
15596;DHT22;7898;48.658;9.068;2023-02-11T13:26:01;13.80;99.90
15596;DHT22;7898;48.658;9.068;2023-02-11T13:28:39;14.00;99.90
15596;DHT22;7898;48.658;9.068;2023-02-11T13:31:09;14.20;99.90
15596;DHT22;7898;48.658;9.068;2023-02-11T13:33:38;14.10;99.90
15596;DHT22;7898;48.658;9.068;2023-02-11T13:36:24;14.20;99.90
15596;DHT22;7898;48.658;9.068;2023-02-11T13:39:00;14.50;99.90
15596;DHT22;7898;48.658;9.068;2023-02-11T13:41:33;14.70;99.90
15596;DHT22;7898;48.658;9.068;2023-02-11T13:44:21;15.00;99.90
15596;DHT22;7898;48.658;9.068;2023-02-11T13:46:57;14.90;99.90
15596;DHT22;7898;48.658;9.068;2023-02-11T13:49:29;14.50;99.90
15596;DHT22;7898;48.658;9.068;2023-02-11T13:51:57;14.00;99.90
15596;DHT22;7898;48.658;9.068;2023-02-11T13:54:29;13.70;99.90
15596;DHT22;7898;48.658;9.068;2023-02-11T13:57:29;14.10;99.90
15596;DHT22;7898;48.658;9.068;2023-02-11T13:59:59;14.10;99.90
15596;DHT22;7898;48.658;9.068;2023-02-11T14:02:30;14.30;99.90
15596;DHT22;7898;48.658;9.068;2023-02-11T14:05:32;14.50;99.90
15596;DHT22;7898;48.658;9.068;2023-02-11T14:08:22;14.20;99.90
15596;DHT22;7898;48.658;9.068;2023-02-11T14:11:43;14.00;99.90
15596;DHT22;7898;48.658;9.068;2023-02-11T14:14:17;13.90;99.90
15596;DHT22;7898;48.658;9.068;2023-02-11T14:19:49;14.30;99.90
15596;DHT22;7898;48.658;9.068;2023-02-11T14:22:18;14.80;99.90
15596;DHT22;7898;48.658;9.068;2023-02-11T14:24:51;15.30;99.90
15596;DHT22;7898;48.658;9.068;2023-02-11T14:27:28;15.60;99.90
15596;DHT22;7898;48.658;9.068;2023-02-11T14:33:46;15.50;99.90
15596;DHT22;7898;48.658;9.068;2023-02-11T14:36:43;16.10;99.90
15596;DHT22;7898;48.658;9.068;2023-02-11T14:39:20;16.40;99.00
15596;DHT22;7898;48.658;9.068;2023-02-11T14:41:50;16.10;99.40
15596;DHT22;7898;48.658;9.068;2023-02-11T14:44:19;16.20;99.60
15596;DHT22;7898;48.658;9.068;2023-02-11T14:46:48;16.60;99.10
15596;DHT22;7898;48.658;9.068;2023-02-11T14:49:23;16.40;99.10
15596;DHT22;7898;48.658;9.068;2023-02-11T14:51:54;16.50;99.00
15596;DHT22;7898;48.658;9.068;2023-02-11T14:54:23;16.30;99.40
15596;DHT22;7898;48.658;9.068;2023-02-11T14:57:06;16.30;99.10
15596;DHT22;7898;48.658;9.068;2023-02-11T14:59:34;16.10;99.40
15596;DHT22;7898;48.658;9.068;2023-02-11T15:02:01;16.40;99.20
15596;DHT22;7898;48.658;9.068;2023-02-11T15:04:30;16.70;99.40
15596;DHT22;7898;48.658;9.068;2023-02-11T15:07:04;17.00;98.70
15596;DHT22;7898;48.658;9.068;2023-02-11T15:09:36;17.10;98.40
15596;DHT22;7898;48.658;9.068;2023-02-11T15:12:14;17.40;98.40
15596;DHT22;7898;48.658;9.068;2023-02-11T15:14:45;17.90;98.10
15596;DHT22;7898;48.658;9.068;2023-02-11T15:17:16;18.00;98.00
15596;DHT22;7898;48.658;9.068;2023-02-11T15:19:47;18.00;97.90
15596;DHT22;7898;48.658;9.068;2023-02-11T15:22:18;17.70;98.40
15596;DHT22;7898;48.658;9.068;2023-02-11T15:24:57;17.50;98.80
15596;DHT22;7898;48.658;9.068;2023-02-11T15:27:24;17.30;99.10
15596;DHT22;7898;48.658;9.068;2023-02-11T15:29:52;17.00;99.40
15596;DHT22;7898;48.658;9.068;2023-02-11T15:32:20;16.60;99.50
15596;DHT22;7898;48.658;9.068;2023-02-11T15:34:48;16.30;99.90
15596;DHT22;7898;48.658;9.068;2023-02-11T15:37:19;16.00;99.90
15596;DHT22;7898;48.658;9.068;2023-02-11T15:39:47;15.80;99.90
15596;DHT22;7898;48.658;9.068;2023-02-11T15:42:24;15.50;99.90
15596;DHT22;7898;48.658;9.068;2023-02-11T15:45:06;15.00;99.90
15596;DHT22;7898;48.658;9.068;2023-02-11T15:47:34;14.10;99.90
15596;DHT22;7898;48.658;9.068;2023-02-11T15:50:01;13.30;99.90
15596;DHT22;7898;48.658;9.068;2023-02-11T15:52:30;12.40;99.90
15596;DHT22;7898;48.658;9.068;2023-02-11T15:54:59;11.60;99.90
15596;DHT22;7898;48.658;9.068;2023-02-11T15:57:27;10.90;99.90
15596;DHT22;7898;48.658;9.068;2023-02-11T15:59:55;10.20;99.90
15596;DHT22;7898;48.658;9.068;2023-02-11T16:02:26;9.70;99.90
15596;DHT22;7898;48.658;9.068;2023-02-11T16:04:57;9.30;99.90
15596;DHT22;7898;48.658;9.068;2023-02-11T16:07:41;9.00;99.90
15596;DHT22;7898;48.658;9.068;2023-02-11T16:10:24;8.70;99.90
15596;DHT22;7898;48.658;9.068;2023-02-11T16:13:01;8.40;99.90
15596;DHT22;7898;48.658;9.068;2023-02-11T16:15:50;8.20;99.90
15596;DHT22;7898;48.658;9.068;2023-02-11T16:18:26;8.10;99.90
15596;DHT22;7898;48.658;9.068;2023-02-11T16:20:55;7.90;99.90
15596;DHT22;7898;48.658;9.068;2023-02-11T16:23:26;7.70;99.90
15596;DHT22;7898;48.658;9.068;2023-02-11T16:25:58;7.60;99.90
15596;DHT22;7898;48.658;9.068;2023-02-11T16:28:27;7.40;99.90
15596;DHT22;7898;48.658;9.068;2023-02-11T16:30:55;7.20;99.90
15596;DHT22;7898;48.658;9.068;2023-02-11T16:33:22;7.00;99.90